Weather at Chehalis Centralia Airport

Public forecast

Using degrees Fahrenheit for public forecast. Weather courtesy of forecast.io.

Current aviation weather report (METAR) for Chehalis Centralia Airport

2024/05/25 10:35 (retrieved 16 minutes ago)

KCLS 251035Z AUTO 22004KT 10SM SCT030 OVC070 09/09 A2991 RMK AO2

Closest aviation forecast (TAF) to Chehalis Centralia Airport

Closest forecast is Olympia Regional Airport, 17.9 nm (33.1 km) N.

2024/05/25 06:30 (retrieved 4 hours ago)

TAF KOLM 250529Z 2506/2606 21007KT P6SM FEW035 BKN050 FM250900 22010KT P6SM OVC025 FM251900 24012G20KT P6SM OVC035 FM260200 23011KT P6SM OVC050